Llanbrynmair, United Kingdom
Current Conditions -  °F | °C
As of 6:50 AM on Friday 28 Nov 2014 (Local Time) from EGOS Reporting Station
Haze Haze  
Wind Chill:   Ceiling: 1000
Heat Index:   Visibility: 3mi
Dew Point:   Wind: 6mph
Humidity: 93%   Direction: 70°ENE
Pressure: 29.59"   Gusts: NA
Location:  52.61°N, 3.63°W
Report Text: EGOS 280650Z 07005KT 5000 BR FEW006 BKN010 OVC020 09/08 Q1002 GRN TEMPO 4000 BR SCT006 YLO1
Loading
Personal Weather Stations






























Interactive Weather Map New forecast layout! Learn more

10-Day Weather Forecast

Advertisements
Track Severe Weather on mobile